sensor_id;sensor_type;location;lat;lon;timestamp;P1;durP1;ratioP1;P2;durP2;ratioP2
57337;SDS011;43173;50.980;18.204;2022-09-01T00:02:04;6.20;;;3.50;;
57337;SDS011;43173;50.980;18.204;2022-09-01T00:04:34;5.80;;;3.70;;
57337;SDS011;43173;50.980;18.204;2022-09-01T00:07:04;6.20;;;3.60;;
57337;SDS011;43173;50.980;18.204;2022-09-01T00:09:32;6.40;;;3.10;;
57337;SDS011;43173;50.980;18.204;2022-09-01T00:11:59;5.90;;;3.20;;
57337;SDS011;43173;50.980;18.204;2022-09-01T00:14:29;5.70;;;3.60;;
57337;SDS011;43173;50.980;18.204;2022-09-01T00:17:00;5.60;;;3.60;;
57337;SDS011;43173;50.980;18.204;2022-09-01T00:19:27;6.10;;;3.60;;
57337;SDS011;43173;50.980;18.204;2022-09-01T00:21:53;4.30;;;2.90;;
57337;SDS011;43173;50.980;18.204;2022-09-01T00:24:20;5.20;;;3.10;;
57337;SDS011;43173;50.980;18.204;2022-09-01T00:26:46;7.30;;;3.50;;
57337;SDS011;43173;50.980;18.204;2022-09-01T00:29:13;7.40;;;3.40;;
57337;SDS011;43173;50.980;18.204;2022-09-01T00:31:40;4.70;;;3.40;;
57337;SDS011;43173;50.980;18.204;2022-09-01T00:34:06;6.10;;;3.40;;
57337;SDS011;43173;50.980;18.204;2022-09-01T00:36:32;7.50;;;3.60;;
57337;SDS011;43173;50.980;18.204;2022-09-01T00:38:58;5.50;;;3.10;;
57337;SDS011;43173;50.980;18.204;2022-09-01T00:41:25;9.50;;;3.30;;
57337;SDS011;43173;50.980;18.204;2022-09-01T00:43:53;5.10;;;3.50;;
57337;SDS011;43173;50.980;18.204;2022-09-01T00:46:24;5.20;;;3.20;;
57337;SDS011;43173;50.980;18.204;2022-09-01T00:51:23;5.10;;;3.20;;
57337;SDS011;43173;50.980;18.204;2022-09-01T00:53:50;6.00;;;3.30;;
57337;SDS011;43173;50.980;18.204;2022-09-01T00:56:16;5.80;;;3.60;;
57337;SDS011;43173;50.980;18.204;2022-09-01T00:58:42;4.40;;;2.90;;
57337;SDS011;43173;50.980;18.204;2022-09-01T01:01:09;7.40;;;3.80;;
57337;SDS011;43173;50.980;18.204;2022-09-01T01:03:35;6.70;;;3.50;;
57337;SDS011;43173;50.980;18.204;2022-09-01T01:06:02;5.90;;;3.50;;
57337;SDS011;43173;50.980;18.204;2022-09-01T01:08:33;7.40;;;3.60;;
57337;SDS011;43173;50.980;18.204;2022-09-01T01:11:09;7.30;;;3.70;;
57337;SDS011;43173;50.980;18.204;2022-09-01T01:16:48;5.70;;;3.60;;
57337;SDS011;43173;50.980;18.204;2022-09-01T01:22:19;8.50;;;3.80;;
57337;SDS011;43173;50.980;18.204;2022-09-01T01:25:07;6.70;;;3.90;;
57337;SDS011;43173;50.980;18.204;2022-09-01T01:27:33;6.60;;;3.60;;
57337;SDS011;43173;50.980;18.204;2022-09-01T01:30:00;5.30;;;3.50;;
57337;SDS011;43173;50.980;18.204;2022-09-01T01:32:27;6.20;;;3.90;;
57337;SDS011;43173;50.980;18.204;2022-09-01T01:34:53;8.60;;;3.70;;
57337;SDS011;43173;50.980;18.204;2022-09-01T01:37:20;7.00;;;4.20;;
57337;SDS011;43173;50.980;18.204;2022-09-01T01:39:49;5.80;;;3.60;;
57337;SDS011;43173;50.980;18.204;2022-09-01T01:42:15;5.20;;;3.60;;
57337;SDS011;43173;50.980;18.204;2022-09-01T01:44:42;7.40;;;3.60;;
57337;SDS011;43173;50.980;18.204;2022-09-01T01:47:10;6.60;;;3.90;;
57337;SDS011;43173;50.980;18.204;2022-09-01T01:49:38;7.10;;;3.60;;
57337;SDS011;43173;50.980;18.204;2022-09-01T01:52:08;6.00;;;3.20;;
57337;SDS011;43173;50.980;18.204;2022-09-01T01:54:40;5.10;;;3.60;;
57337;SDS011;43173;50.980;18.204;2022-09-01T01:57:08;5.30;;;3.50;;
57337;SDS011;43173;50.980;18.204;2022-09-01T01:59:33;7.20;;;3.60;;
57337;SDS011;43173;50.980;18.204;2022-09-01T02:02:00;5.90;;;3.60;;
57337;SDS011;43173;50.980;18.204;2022-09-01T02:04:29;5.90;;;3.50;;
57337;SDS011;43173;50.980;18.204;2022-09-01T02:06:58;8.00;;;3.60;;
57337;SDS011;43173;50.980;18.204;2022-09-01T02:09:24;5.60;;;3.10;;
57337;SDS011;43173;50.980;18.204;2022-09-01T02:11:50;6.50;;;3.40;;
57337;SDS011;43173;50.980;18.204;2022-09-01T02:14:21;5.90;;;3.50;;
57337;SDS011;43173;50.980;18.204;2022-09-01T02:16:47;5.80;;;3.50;;
57337;SDS011;43173;50.980;18.204;2022-09-01T02:19:13;8.40;;;3.70;;
57337;SDS011;43173;50.980;18.204;2022-09-01T02:21:44;7.20;;;3.50;;
57337;SDS011;43173;50.980;18.204;2022-09-01T02:24:20;7.00;;;3.40;;
57337;SDS011;43173;50.980;18.204;2022-09-01T02:26:48;7.10;;;3.50;;
57337;SDS011;43173;50.980;18.204;2022-09-01T02:29:16;5.80;;;3.30;;
57337;SDS011;43173;50.980;18.204;2022-09-01T02:31:50;4.30;;;3.30;;
57337;SDS011;43173;50.980;18.204;2022-09-01T02:34:17;5.50;;;3.10;;
57337;SDS011;43173;50.980;18.204;2022-09-01T02:36:45;6.20;;;3.20;;
57337;SDS011;43173;50.980;18.204;2022-09-01T02:39:13;5.30;;;3.20;;
57337;SDS011;43173;50.980;18.204;2022-09-01T02:41:40;4.90;;;3.20;;
57337;SDS011;43173;50.980;18.204;2022-09-01T02:44:06;7.60;;;3.60;;
57337;SDS011;43173;50.980;18.204;2022-09-01T02:46:39;4.20;;;3.30;;
57337;SDS011;43173;50.980;18.204;2022-09-01T02:49:08;6.00;;;3.40;;
57337;SDS011;43173;50.980;18.204;2022-09-01T02:51:43;4.80;;;3.60;;
57337;SDS011;43173;50.980;18.204;2022-09-01T02:54:10;5.30;;;3.60;;
57337;SDS011;43173;50.980;18.204;2022-09-01T02:56:40;7.10;;;3.30;;
57337;SDS011;43173;50.980;18.204;2022-09-01T02:59:06;7.30;;;3.90;;
57337;SDS011;43173;50.980;18.204;2022-09-01T03:01:37;4.80;;;3.00;;
57337;SDS011;43173;50.980;18.204;2022-09-01T03:04:04;6.30;;;3.10;;
57337;SDS011;43173;50.980;18.204;2022-09-01T03:06:30;4.90;;;3.20;;
57337;SDS011;43173;50.980;18.204;2022-09-01T03:08:59;5.80;;;3.50;;
57337;SDS011;43173;50.980;18.204;2022-09-01T03:11:26;3.90;;;2.80;;
57337;SDS011;43173;50.980;18.204;2022-09-01T03:13:54;3.60;;;2.90;;
57337;SDS011;43173;50.980;18.204;2022-09-01T03:16:20;5.80;;;3.10;;
57337;SDS011;43173;50.980;18.204;2022-09-01T03:18:49;3.90;;;3.00;;
57337;SDS011;43173;50.980;18.204;2022-09-01T03:21:16;4.60;;;3.10;;
57337;SDS011;43173;50.980;18.204;2022-09-01T03:23:45;6.30;;;3.30;;
57337;SDS011;43173;50.980;18.204;2022-09-01T03:26:11;4.90;;;3.20;;
57337;SDS011;43173;50.980;18.204;2022-09-01T03:28:38;6.00;;;3.10;;
57337;SDS011;43173;50.980;18.204;2022-09-01T03:31:04;5.10;;;3.40;;
57337;SDS011;43173;50.980;18.204;2022-09-01T03:33:30;4.80;;;3.20;;
57337;SDS011;43173;50.980;18.204;2022-09-01T03:35:57;7.20;;;3.30;;
57337;SDS011;43173;50.980;18.204;2022-09-01T03:38:23;6.40;;;3.50;;
57337;SDS011;43173;50.980;18.204;2022-09-01T03:40:50;5.90;;;3.30;;
57337;SDS011;43173;50.980;18.204;2022-09-01T03:43:19;6.30;;;3.50;;
57337;SDS011;43173;50.980;18.204;2022-09-01T03:45:51;7.20;;;3.70;;
57337;SDS011;43173;50.980;18.204;2022-09-01T03:48:20;6.50;;;3.40;;
57337;SDS011;43173;50.980;18.204;2022-09-01T03:50:46;6.70;;;3.50;;
57337;SDS011;43173;50.980;18.204;2022-09-01T03:53:13;5.70;;;3.70;;
57337;SDS011;43173;50.980;18.204;2022-09-01T03:55:40;6.10;;;2.90;;
57337;SDS011;43173;50.980;18.204;2022-09-01T03:58:09;4.60;;;3.70;;
57337;SDS011;43173;50.980;18.204;2022-09-01T04:00:38;5.50;;;3.20;;
57337;SDS011;43173;50.980;18.204;2022-09-01T04:03:06;6.00;;;4.00;;
57337;SDS011;43173;50.980;18.204;2022-09-01T04:05:35;4.40;;;3.40;;
57337;SDS011;43173;50.980;18.204;2022-09-01T04:08:03;6.00;;;3.10;;
57337;SDS011;43173;50.980;18.204;2022-09-01T04:10:31;4.20;;;3.40;;
57337;SDS011;43173;50.980;18.204;2022-09-01T04:13:01;4.20;;;3.40;;
57337;SDS011;43173;50.980;18.204;2022-09-01T04:15:27;3.90;;;3.00;;
57337;SDS011;43173;50.980;18.204;2022-09-01T04:17:54;4.60;;;3.30;;
57337;SDS011;43173;50.980;18.204;2022-09-01T04:20:39;5.50;;;3.60;;
57337;SDS011;43173;50.980;18.204;2022-09-01T04:23:30;5.60;;;3.30;;
57337;SDS011;43173;50.980;18.204;2022-09-01T04:26:02;6.50;;;3.60;;
57337;SDS011;43173;50.980;18.204;2022-09-01T04:28:45;5.20;;;3.60;;
57337;SDS011;43173;50.980;18.204;2022-09-01T04:31:15;8.00;;;3.70;;
57337;SDS011;43173;50.980;18.204;2022-09-01T04:33:43;6.10;;;3.40;;
57337;SDS011;43173;50.980;18.204;2022-09-01T04:38:44;6.00;;;3.70;;
57337;SDS011;43173;50.980;18.204;2022-09-01T04:41:11;6.80;;;3.90;;
57337;SDS011;43173;50.980;18.204;2022-09-01T04:43:45;6.40;;;3.90;;
57337;SDS011;43173;50.980;18.204;2022-09-01T04:46:13;7.70;;;4.00;;
57337;SDS011;43173;50.980;18.204;2022-09-01T04:48:40;4.30;;;3.40;;
57337;SDS011;43173;50.980;18.204;2022-09-01T04:51:07;5.90;;;3.30;;
57337;SDS011;43173;50.980;18.204;2022-09-01T04:53:35;4.90;;;3.60;;
57337;SDS011;43173;50.980;18.204;2022-09-01T04:56:03;8.30;;;4.00;;
57337;SDS011;43173;50.980;18.204;2022-09-01T04:58:34;5.20;;;3.70;;
57337;SDS011;43173;50.980;18.204;2022-09-01T05:01:01;6.90;;;3.70;;
57337;SDS011;43173;50.980;18.204;2022-09-01T05:03:30;6.20;;;4.10;;
57337;SDS011;43173;50.980;18.204;2022-09-01T05:05:56;4.70;;;3.20;;
57337;SDS011;43173;50.980;18.204;2022-09-01T05:08:27;5.70;;;3.60;;
57337;SDS011;43173;50.980;18.204;2022-09-01T05:10:54;6.00;;;3.40;;
57337;SDS011;43173;50.980;18.204;2022-09-01T05:13:21;6.40;;;3.80;;
57337;SDS011;43173;50.980;18.204;2022-09-01T05:15:57;4.50;;;3.20;;
57337;SDS011;43173;50.980;18.204;2022-09-01T05:18:26;8.80;;;4.90;;
57337;SDS011;43173;50.980;18.204;2022-09-01T05:20:53;6.60;;;3.90;;
57337;SDS011;43173;50.980;18.204;2022-09-01T05:23:19;5.10;;;3.30;;
57337;SDS011;43173;50.980;18.204;2022-09-01T05:25:49;4.20;;;3.10;;
57337;SDS011;43173;50.980;18.204;2022-09-01T05:28:19;4.40;;;2.80;;
57337;SDS011;43173;50.980;18.204;2022-09-01T05:30:50;7.10;;;3.20;;
57337;SDS011;43173;50.980;18.204;2022-09-01T05:33:18;5.50;;;2.70;;
57337;SDS011;43173;50.980;18.204;2022-09-01T05:38:33;7.30;;;3.30;;
57337;SDS011;43173;50.980;18.204;2022-09-01T05:41:00;5.00;;;2.70;;
57337;SDS011;43173;50.980;18.204;2022-09-01T05:43:28;6.80;;;2.90;;
57337;SDS011;43173;50.980;18.204;2022-09-01T05:45:56;5.90;;;2.90;;
57337;SDS011;43173;50.980;18.204;2022-09-01T05:48:22;5.40;;;3.10;;
57337;SDS011;43173;50.980;18.204;2022-09-01T05:50:49;5.50;;;3.10;;
57337;SDS011;43173;50.980;18.204;2022-09-01T05:53:20;5.60;;;3.40;;
57337;SDS011;43173;50.980;18.204;2022-09-01T05:55:49;4.20;;;3.00;;
57337;SDS011;43173;50.980;18.204;2022-09-01T06:00:49;4.10;;;2.70;;
57337;SDS011;43173;50.980;18.204;2022-09-01T06:03:18;6.50;;;2.80;;
57337;SDS011;43173;50.980;18.204;2022-09-01T06:05:44;3.30;;;3.00;;
57337;SDS011;43173;50.980;18.204;2022-09-01T06:08:21;3.90;;;2.60;;
57337;SDS011;43173;50.980;18.204;2022-09-01T06:10:49;2.70;;;2.30;;
57337;SDS011;43173;50.980;18.204;2022-09-01T06:13:16;5.00;;;2.70;;
57337;SDS011;43173;50.980;18.204;2022-09-01T06:15:49;4.30;;;2.50;;
57337;SDS011;43173;50.980;18.204;2022-09-01T06:18:18;5.40;;;2.50;;
57337;SDS011;43173;50.980;18.204;2022-09-01T06:20:46;6.60;;;2.50;;
57337;SDS011;43173;50.980;18.204;2022-09-01T06:23:12;3.70;;;2.70;;
57337;SDS011;43173;50.980;18.204;2022-09-01T06:25:44;5.80;;;2.40;;
57337;SDS011;43173;50.980;18.204;2022-09-01T06:28:13;4.90;;;1.80;;
57337;SDS011;43173;50.980;18.204;2022-09-01T06:30:40;4.90;;;2.30;;
57337;SDS011;43173;50.980;18.204;2022-09-01T06:33:07;3.60;;;1.80;;
57337;SDS011;43173;50.980;18.204;2022-09-01T06:35:41;4.10;;;2.20;;
57337;SDS011;43173;50.980;18.204;2022-09-01T06:38:09;8.50;;;2.10;;
57337;SDS011;43173;50.980;18.204;2022-09-01T06:40:36;5.40;;;1.60;;
57337;SDS011;43173;50.980;18.204;2022-09-01T06:43:07;3.30;;;1.90;;
57337;SDS011;43173;50.980;18.204;2022-09-01T06:45:38;3.00;;;1.80;;
57337;SDS011;43173;50.980;18.204;2022-09-01T06:48:06;2.90;;;1.50;;
57337;SDS011;43173;50.980;18.204;2022-09-01T06:50:32;2.90;;;1.50;;
57337;SDS011;43173;50.980;18.204;2022-09-01T06:52:58;2.90;;;1.00;;
57337;SDS011;43173;50.980;18.204;2022-09-01T06:55:43;7.00;;;1.80;;
57337;SDS011;43173;50.980;18.204;2022-09-01T06:58:12;2.70;;;1.10;;
57337;SDS011;43173;50.980;18.204;2022-09-01T07:00:39;2.90;;;1.20;;
57337;SDS011;43173;50.980;18.204;2022-09-01T07:03:10;1.40;;;0.90;;
57337;SDS011;43173;50.980;18.204;2022-09-01T07:05:38;3.00;;;1.00;;
57337;SDS011;43173;50.980;18.204;2022-09-01T07:08:05;5.70;;;1.30;;
57337;SDS011;43173;50.980;18.204;2022-09-01T07:10:38;2.50;;;1.20;;
57337;SDS011;43173;50.980;18.204;2022-09-01T07:13:05;2.30;;;1.00;;
57337;SDS011;43173;50.980;18.204;2022-09-01T07:15:36;2.90;;;1.10;;
57337;SDS011;43173;50.980;18.204;2022-09-01T07:20:30;1.50;;;1.00;;
57337;SDS011;43173;50.980;18.204;2022-09-01T07:23:04;2.90;;;1.20;;
57337;SDS011;43173;50.980;18.204;2022-09-01T07:25:30;1.40;;;1.00;;
57337;SDS011;43173;50.980;18.204;2022-09-01T07:28:00;2.30;;;0.70;;
57337;SDS011;43173;50.980;18.204;2022-09-01T07:30:26;1.90;;;0.90;;
57337;SDS011;43173;50.980;18.204;2022-09-01T07:32:52;3.00;;;1.30;;
57337;SDS011;43173;50.980;18.204;2022-09-01T07:35:20;4.40;;;2.10;;
57337;SDS011;43173;50.980;18.204;2022-09-01T07:37:46;3.40;;;1.00;;
57337;SDS011;43173;50.980;18.204;2022-09-01T07:40:14;2.60;;;1.10;;
57337;SDS011;43173;50.980;18.204;2022-09-01T07:42:43;2.10;;;0.70;;
57337;SDS011;43173;50.980;18.204;2022-09-01T07:45:12;1.00;;;0.70;;
57337;SDS011;43173;50.980;18.204;2022-09-01T07:47:39;2.60;;;1.00;;
57337;SDS011;43173;50.980;18.204;2022-09-01T07:50:07;2.80;;;0.90;;
57337;SDS011;43173;50.980;18.204;2022-09-01T07:52:35;1.90;;;1.00;;
57337;SDS011;43173;50.980;18.204;2022-09-01T07:55:08;4.40;;;1.50;;
57337;SDS011;43173;50.980;18.204;2022-09-01T07:57:36;1.70;;;1.10;;
57337;SDS011;43173;50.980;18.204;2022-09-01T08:00:03;4.90;;;2.00;;
57337;SDS011;43173;50.980;18.204;2022-09-01T08:02:30;2.10;;;1.10;;
57337;SDS011;43173;50.980;18.204;2022-09-01T08:04:58;4.00;;;1.20;;
57337;SDS011;43173;50.980;18.204;2022-09-01T08:07:24;2.00;;;0.90;;
57337;SDS011;43173;50.980;18.204;2022-09-01T08:09:50;1.60;;;0.80;;
57337;SDS011;43173;50.980;18.204;2022-09-01T08:12:16;1.50;;;0.80;;
57337;SDS011;43173;50.980;18.204;2022-09-01T08:14:42;2.20;;;0.90;;
57337;SDS011;43173;50.980;18.204;2022-09-01T08:17:07;2.20;;;0.70;;
57337;SDS011;43173;50.980;18.204;2022-09-01T08:19:33;1.20;;;0.70;;
57337;SDS011;43173;50.980;18.204;2022-09-01T08:22:00;1.40;;;0.60;;
57337;SDS011;43173;50.980;18.204;2022-09-01T08:24:26;1.40;;;0.60;;
57337;SDS011;43173;50.980;18.204;2022-09-01T08:26:51;1.90;;;0.90;;
57337;SDS011;43173;50.980;18.204;2022-09-01T08:29:17;1.30;;;0.80;;
57337;SDS011;43173;50.980;18.204;2022-09-01T08:31:42;2.40;;;0.60;;
57337;SDS011;43173;50.980;18.204;2022-09-01T08:34:11;1.90;;;1.00;;
57337;SDS011;43173;50.980;18.204;2022-09-01T08:36:37;3.20;;;0.70;;
57337;SDS011;43173;50.980;18.204;2022-09-01T08:39:03;1.80;;;0.80;;
57337;SDS011;43173;50.980;18.204;2022-09-01T08:46:58;1.20;;;0.70;;
57337;SDS011;43173;50.980;18.204;2022-09-01T08:49:27;2.90;;;0.80;;
57337;SDS011;43173;50.980;18.204;2022-09-01T08:52:02;3.30;;;0.80;;
57337;SDS011;43173;50.980;18.204;2022-09-01T08:54:36;2.60;;;0.80;;
57337;SDS011;43173;50.980;18.204;2022-09-01T08:57:13;1.10;;;0.70;;
57337;SDS011;43173;50.980;18.204;2022-09-01T08:59:52;1.20;;;0.70;;
57337;SDS011;43173;50.980;18.204;2022-09-01T09:16:24;2.30;;;0.80;;
57337;SDS011;43173;50.980;18.204;2022-09-01T09:19:01;0.80;;;0.50;;
57337;SDS011;43173;50.980;18.204;2022-09-01T09:21:48;0.70;;;0.50;;
57337;SDS011;43173;50.980;18.204;2022-09-01T09:30:13;1.60;;;0.50;;
57337;SDS011;43173;50.980;18.204;2022-09-01T09:32:48;1.90;;;0.50;;
57337;SDS011;43173;50.980;18.204;2022-09-01T09:51:42;1.50;;;0.60;;
57337;SDS011;43173;50.980;18.204;2022-09-01T09:54:14;3.80;;;0.70;;
57337;SDS011;43173;50.980;18.204;2022-09-01T09:56:41;1.80;;;0.40;;
57337;SDS011;43173;50.980;18.204;2022-09-01T10:02:12;0.90;;;0.60;;
57337;SDS011;43173;50.980;18.204;2022-09-01T10:05:19;1.20;;;0.60;;
57337;SDS011;43173;50.980;18.204;2022-09-01T10:08:09;0.80;;;0.60;;
57337;SDS011;43173;50.980;18.204;2022-09-01T10:10:44;1.70;;;0.50;;
57337;SDS011;43173;50.980;18.204;2022-09-01T10:15:39;1.20;;;0.40;;
57337;SDS011;43173;50.980;18.204;2022-09-01T10:18:11;1.30;;;0.50;;
57337;SDS011;43173;50.980;18.204;2022-09-01T10:20:42;1.90;;;0.50;;
57337;SDS011;43173;50.980;18.204;2022-09-01T10:23:12;1.00;;;0.30;;
57337;SDS011;43173;50.980;18.204;2022-09-01T10:25:38;1.70;;;0.50;;
57337;SDS011;43173;50.980;18.204;2022-09-01T10:28:07;3.60;;;0.80;;
57337;SDS011;43173;50.980;18.204;2022-09-01T10:30:37;1.00;;;0.50;;
57337;SDS011;43173;50.980;18.204;2022-09-01T10:33:07;1.70;;;0.40;;
57337;SDS011;43173;50.980;18.204;2022-09-01T10:35:34;1.00;;;0.50;;
57337;SDS011;43173;50.980;18.204;2022-09-01T10:38:23;1.40;;;0.70;;
57337;SDS011;43173;50.980;18.204;2022-09-01T10:40:51;1.70;;;0.40;;
57337;SDS011;43173;50.980;18.204;2022-09-01T10:43:39;1.10;;;0.50;;
57337;SDS011;43173;50.980;18.204;2022-09-01T10:48:52;1.10;;;0.40;;
57337;SDS011;43173;50.980;18.204;2022-09-01T10:53:48;0.90;;;0.50;;
57337;SDS011;43173;50.980;18.204;2022-09-01T11:06:57;2.10;;;0.60;;
57337;SDS011;43173;50.980;18.204;2022-09-01T11:17:38;1.70;;;0.80;;
57337;SDS011;43173;50.980;18.204;2022-09-01T11:22:57;0.70;;;0.40;;
57337;SDS011;43173;50.980;18.204;2022-09-01T11:36:44;1.40;;;0.60;;
57337;SDS011;43173;50.980;18.204;2022-09-01T11:39:34;2.30;;;0.40;;
57337;SDS011;43173;50.980;18.204;2022-09-01T11:52:58;0.90;;;0.50;;
57337;SDS011;43173;50.980;18.204;2022-09-01T11:58:11;1.40;;;0.40;;
57337;SDS011;43173;50.980;18.204;2022-09-01T12:03:45;1.50;;;0.50;;
57337;SDS011;43173;50.980;18.204;2022-09-01T12:06:17;2.40;;;0.40;;
57337;SDS011;43173;50.980;18.204;2022-09-01T12:08:50;1.00;;;0.40;;
57337;SDS011;43173;50.980;18.204;2022-09-01T12:11:19;1.00;;;0.30;;
57337;SDS011;43173;50.980;18.204;2022-09-01T12:13:57;1.80;;;0.40;;
57337;SDS011;43173;50.980;18.204;2022-09-01T12:16:28;0.90;;;0.50;;
57337;SDS011;43173;50.980;18.204;2022-09-01T12:18:56;0.50;;;0.50;;
57337;SDS011;43173;50.980;18.204;2022-09-01T12:23:53;0.70;;;0.40;;
57337;SDS011;43173;50.980;18.204;2022-09-01T12:26:29;1.80;;;0.60;;
57337;SDS011;43173;50.980;18.204;2022-09-01T12:28:55;1.40;;;0.30;;
57337;SDS011;43173;50.980;18.204;2022-09-01T12:31:22;0.80;;;0.40;;
57337;SDS011;43173;50.980;18.204;2022-09-01T12:33:50;1.70;;;0.40;;
57337;SDS011;43173;50.980;18.204;2022-09-01T12:36:24;1.40;;;0.40;;
57337;SDS011;43173;50.980;18.204;2022-09-01T12:38:52;0.70;;;0.50;;
57337;SDS011;43173;50.980;18.204;2022-09-01T12:41:23;1.00;;;0.40;;
57337;SDS011;43173;50.980;18.204;2022-09-01T12:47:05;1.00;;;0.30;;
57337;SDS011;43173;50.980;18.204;2022-09-01T12:52:19;1.10;;;0.50;;
57337;SDS011;43173;50.980;18.204;2022-09-01T12:54:51;0.90;;;0.40;;
57337;SDS011;43173;50.980;18.204;2022-09-01T12:57:23;0.80;;;0.30;;
57337;SDS011;43173;50.980;18.204;2022-09-01T13:00:04;1.50;;;0.40;;
57337;SDS011;43173;50.980;18.204;2022-09-01T13:02:32;0.60;;;0.40;;
57337;SDS011;43173;50.980;18.204;2022-09-01T13:07:47;1.90;;;0.40;;
57337;SDS011;43173;50.980;18.204;2022-09-01T13:10:13;1.50;;;0.50;;
57337;SDS011;43173;50.980;18.204;2022-09-01T13:12:40;2.80;;;0.40;;
57337;SDS011;43173;50.980;18.204;2022-09-01T13:15:07;0.60;;;0.40;;
57337;SDS011;43173;50.980;18.204;2022-09-01T13:17:33;2.90;;;0.40;;
57337;SDS011;43173;50.980;18.204;2022-09-01T13:19:59;0.70;;;0.40;;
57337;SDS011;43173;50.980;18.204;2022-09-01T13:22:25;1.70;;;0.40;;
57337;SDS011;43173;50.980;18.204;2022-09-01T13:24:50;0.60;;;0.40;;
57337;SDS011;43173;50.980;18.204;2022-09-01T13:27:16;0.70;;;0.40;;
57337;SDS011;43173;50.980;18.204;2022-09-01T13:29:41;1.60;;;0.40;;
57337;SDS011;43173;50.980;18.204;2022-09-01T13:32:07;1.80;;;0.30;;
57337;SDS011;43173;50.980;18.204;2022-09-01T13:34:33;0.70;;;0.30;;
57337;SDS011;43173;50.980;18.204;2022-09-01T13:36:59;1.90;;;0.70;;
57337;SDS011;43173;50.980;18.204;2022-09-01T13:39:25;0.90;;;0.40;;
57337;SDS011;43173;50.980;18.204;2022-09-01T13:41:50;2.40;;;0.60;;
57337;SDS011;43173;50.980;18.204;2022-09-01T13:44:17;1.50;;;0.50;;
57337;SDS011;43173;50.980;18.204;2022-09-01T13:46:43;1.10;;;0.40;;
57337;SDS011;43173;50.980;18.204;2022-09-01T13:49:09;1.20;;;0.40;;
57337;SDS011;43173;50.980;18.204;2022-09-01T13:51:36;0.70;;;0.50;;
57337;SDS011;43173;50.980;18.204;2022-09-01T13:54:02;2.20;;;0.70;;
57337;SDS011;43173;50.980;18.204;2022-09-01T13:56:27;2.40;;;0.80;;
57337;SDS011;43173;50.980;18.204;2022-09-01T13:58:53;0.70;;;0.50;;
57337;SDS011;43173;50.980;18.204;2022-09-01T14:01:19;0.40;;;0.40;;
57337;SDS011;43173;50.980;18.204;2022-09-01T14:03:47;2.10;;;0.50;;
57337;SDS011;43173;50.980;18.204;2022-09-01T14:06:14;1.50;;;0.40;;
57337;SDS011;43173;50.980;18.204;2022-09-01T14:08:40;0.30;;;0.30;;
57337;SDS011;43173;50.980;18.204;2022-09-01T14:11:06;1.00;;;0.50;;
57337;SDS011;43173;50.980;18.204;2022-09-01T14:13:32;1.60;;;0.60;;
57337;SDS011;43173;50.980;18.204;2022-09-01T14:15:58;1.00;;;0.40;;
57337;SDS011;43173;50.980;18.204;2022-09-01T14:18:24;0.60;;;0.40;;
57337;SDS011;43173;50.980;18.204;2022-09-01T14:20:56;2.00;;;0.30;;
57337;SDS011;43173;50.980;18.204;2022-09-01T14:23:24;3.30;;;0.80;;
57337;SDS011;43173;50.980;18.204;2022-09-01T14:25:49;2.20;;;0.50;;
57337;SDS011;43173;50.980;18.204;2022-09-01T14:28:17;0.90;;;0.40;;
57337;SDS011;43173;50.980;18.204;2022-09-01T14:30:44;0.50;;;0.40;;
57337;SDS011;43173;50.980;18.204;2022-09-01T14:33:10;1.40;;;0.80;;
57337;SDS011;43173;50.980;18.204;2022-09-01T14:35:41;1.40;;;0.60;;
57337;SDS011;43173;50.980;18.204;2022-09-01T14:38:08;1.60;;;0.50;;
57337;SDS011;43173;50.980;18.204;2022-09-01T14:40:35;2.10;;;0.70;;
57337;SDS011;43173;50.980;18.204;2022-09-01T14:43:02;1.00;;;0.30;;
57337;SDS011;43173;50.980;18.204;2022-09-01T14:45:29;0.20;;;0.20;;
57337;SDS011;43173;50.980;18.204;2022-09-01T14:47:56;0.70;;;0.40;;
57337;SDS011;43173;50.980;18.204;2022-09-01T14:50:25;2.50;;;0.70;;
57337;SDS011;43173;50.980;18.204;2022-09-01T14:52:53;0.40;;;0.30;;
57337;SDS011;43173;50.980;18.204;2022-09-01T14:55:20;1.10;;;0.50;;
57337;SDS011;43173;50.980;18.204;2022-09-01T14:57:47;0.60;;;0.50;;
57337;SDS011;43173;50.980;18.204;2022-09-01T15:00:13;1.50;;;0.50;;
57337;SDS011;43173;50.980;18.204;2022-09-01T15:02:39;1.20;;;0.40;;
57337;SDS011;43173;50.980;18.204;2022-09-01T15:05:05;1.40;;;0.40;;
57337;SDS011;43173;50.980;18.204;2022-09-01T15:07:32;1.90;;;0.70;;
57337;SDS011;43173;50.980;18.204;2022-09-01T15:09:57;0.70;;;0.30;;
57337;SDS011;43173;50.980;18.204;2022-09-01T15:12:24;0.40;;;0.40;;
57337;SDS011;43173;50.980;18.204;2022-09-01T15:14:50;2.10;;;0.50;;
57337;SDS011;43173;50.980;18.204;2022-09-01T15:17:15;0.30;;;0.30;;
57337;SDS011;43173;50.980;18.204;2022-09-01T15:19:41;1.40;;;0.50;;
57337;SDS011;43173;50.980;18.204;2022-09-01T15:22:07;1.50;;;0.50;;
57337;SDS011;43173;50.980;18.204;2022-09-01T15:24:35;1.30;;;0.50;;
57337;SDS011;43173;50.980;18.204;2022-09-01T15:27:01;0.80;;;0.30;;
57337;SDS011;43173;50.980;18.204;2022-09-01T15:29:27;1.10;;;0.60;;
57337;SDS011;43173;50.980;18.204;2022-09-01T15:31:58;3.30;;;0.50;;
57337;SDS011;43173;50.980;18.204;2022-09-01T15:34:26;4.20;;;0.50;;
57337;SDS011;43173;50.980;18.204;2022-09-01T15:36:52;2.00;;;0.50;;
57337;SDS011;43173;50.980;18.204;2022-09-01T15:39:19;4.00;;;0.80;;
57337;SDS011;43173;50.980;18.204;2022-09-01T15:41:44;1.80;;;0.50;;
57337;SDS011;43173;50.980;18.204;2022-09-01T15:44:10;0.20;;;0.20;;
57337;SDS011;43173;50.980;18.204;2022-09-01T15:46:36;2.40;;;0.50;;
57337;SDS011;43173;50.980;18.204;2022-09-01T15:49:04;1.70;;;0.70;;
57337;SDS011;43173;50.980;18.204;2022-09-01T15:51:35;1.60;;;1.10;;
57337;SDS011;43173;50.980;18.204;2022-09-01T15:54:04;1.50;;;0.80;;
57337;SDS011;43173;50.980;18.204;2022-09-01T15:56:31;2.80;;;0.60;;
57337;SDS011;43173;50.980;18.204;2022-09-01T15:58:57;0.60;;;0.60;;
57337;SDS011;43173;50.980;18.204;2022-09-01T16:01:23;1.00;;;0.40;;
57337;SDS011;43173;50.980;18.204;2022-09-01T16:03:50;4.10;;;0.80;;
57337;SDS011;43173;50.980;18.204;2022-09-01T16:06:16;2.40;;;0.60;;
57337;SDS011;43173;50.980;18.204;2022-09-01T16:08:41;2.10;;;0.50;;
57337;SDS011;43173;50.980;18.204;2022-09-01T16:11:07;1.20;;;0.50;;
57337;SDS011;43173;50.980;18.204;2022-09-01T16:13:35;3.40;;;0.60;;
57337;SDS011;43173;50.980;18.204;2022-09-01T16:23:56;2.60;;;0.50;;
57337;SDS011;43173;50.980;18.204;2022-09-01T16:26:29;3.30;;;0.80;;
57337;SDS011;43173;50.980;18.204;2022-09-01T16:28:55;1.30;;;0.60;;
57337;SDS011;43173;50.980;18.204;2022-09-01T16:31:23;1.50;;;0.70;;
57337;SDS011;43173;50.980;18.204;2022-09-01T16:33:54;3.80;;;0.60;;
57337;SDS011;43173;50.980;18.204;2022-09-01T16:36:30;2.90;;;0.50;;
57337;SDS011;43173;50.980;18.204;2022-09-01T16:42:02;1.80;;;0.50;;
57337;SDS011;43173;50.980;18.204;2022-09-01T16:52:58;1.60;;;0.70;;
57337;SDS011;43173;50.980;18.204;2022-09-01T17:04:39;2.60;;;0.80;;
57337;SDS011;43173;50.980;18.204;2022-09-01T17:06:52;2.90;;;0.80;;
57337;SDS011;43173;50.980;18.204;2022-09-01T17:09:40;4.90;;;0.90;;
57337;SDS011;43173;50.980;18.204;2022-09-01T17:12:21;2.10;;;0.80;;
57337;SDS011;43173;50.980;18.204;2022-09-01T17:14:57;2.00;;;0.60;;
57337;SDS011;43173;50.980;18.204;2022-09-01T17:17:32;1.40;;;0.70;;
57337;SDS011;43173;50.980;18.204;2022-09-01T17:20:03;0.40;;;0.40;;
57337;SDS011;43173;50.980;18.204;2022-09-01T17:22:30;0.90;;;0.50;;
57337;SDS011;43173;50.980;18.204;2022-09-01T17:25:01;1.00;;;0.50;;